sensor_id;sensor_type;location;lat;lon;timestamp;pressure;altitude;pressure_sealevel;temperature;humidity
7760;BME280;3924;48.830;9.262;2023-02-15T00:01:39;99974.09;;;1.32;82.96
7760;BME280;3924;48.830;9.262;2023-02-15T00:04:06;99967.13;;;1.31;82.83
7760;BME280;3924;48.830;9.262;2023-02-15T00:06:33;99973.66;;;1.29;82.85
7760;BME280;3924;48.830;9.262;2023-02-15T00:09:01;99966.88;;;1.26;83.01
7760;BME280;3924;48.830;9.262;2023-02-15T00:11:27;99973.25;;;1.25;82.98
7760;BME280;3924;48.830;9.262;2023-02-15T00:14:13;99970.72;;;1.17;82.90
7760;BME280;3924;48.830;9.262;2023-02-15T00:16:41;99965.78;;;1.14;83.01
7760;BME280;3924;48.830;9.262;2023-02-15T00:19:09;99961.84;;;1.10;83.03
7760;BME280;3924;48.830;9.262;2023-02-15T00:21:37;99954.22;;;1.07;83.35
7760;BME280;3924;48.830;9.262;2023-02-15T00:24:06;99950.94;;;1.05;83.25
7760;BME280;3924;48.830;9.262;2023-02-15T00:26:33;99949.28;;;1.04;83.40
7760;BME280;3924;48.830;9.262;2023-02-15T00:29:01;99954.63;;;1.04;83.23
7760;BME280;3924;48.830;9.262;2023-02-15T00:31:31;99951.31;;;1.02;83.32
7760;BME280;3924;48.830;9.262;2023-02-15T00:34:12;99950.44;;;0.95;83.31
7760;BME280;3924;48.830;9.262;2023-02-15T00:36:39;99945.31;;;0.93;83.11
7760;BME280;3924;48.830;9.262;2023-02-15T00:39:06;99951.03;;;0.90;83.49
7760;BME280;3924;48.830;9.262;2023-02-15T00:41:33;99949.19;;;0.91;83.45
7760;BME280;3924;48.830;9.262;2023-02-15T00:44:00;99947.16;;;0.93;83.40
7760;BME280;3924;48.830;9.262;2023-02-15T00:46:27;99949.81;;;0.93;83.54
7760;BME280;3924;48.830;9.262;2023-02-15T00:48:53;99946.53;;;0.91;83.35
7760;BME280;3924;48.830;9.262;2023-02-15T00:51:20;99950.44;;;0.95;83.63
7760;BME280;3924;48.830;9.262;2023-02-15T00:53:46;99952.09;;;0.96;83.65
7760;BME280;3924;48.830;9.262;2023-02-15T00:56:13;99955.78;;;0.95;83.55
7760;BME280;3924;48.830;9.262;2023-02-15T00:58:40;99952.50;;;0.93;83.57
7760;BME280;3924;48.830;9.262;2023-02-15T01:01:09;99946.69;;;0.89;83.34
7760;BME280;3924;48.830;9.262;2023-02-15T01:03:36;99953.72;;;0.90;83.58
7760;BME280;3924;48.830;9.262;2023-02-15T01:06:03;99953.88;;;0.89;83.52
7760;BME280;3924;48.830;9.262;2023-02-15T01:08:30;99952.91;;;0.90;83.51
7760;BME280;3924;48.830;9.262;2023-02-15T01:11:03;99947.09;;;0.86;83.40
7760;BME280;3924;48.830;9.262;2023-02-15T01:13:30;99937.59;;;0.77;83.52
7760;BME280;3924;48.830;9.262;2023-02-15T01:15:56;99942.50;;;0.73;83.54
7760;BME280;3924;48.830;9.262;2023-02-15T01:18:23;99947.47;;;0.76;83.56
7760;BME280;3924;48.830;9.262;2023-02-15T01:20:50;99940.06;;;0.78;83.70
7760;BME280;3924;48.830;9.262;2023-02-15T01:23:16;99940.91;;;0.79;83.65
7760;BME280;3924;48.830;9.262;2023-02-15T01:25:43;99941.72;;;0.79;83.65
7760;BME280;3924;48.830;9.262;2023-02-15T01:28:09;99944.78;;;0.76;83.73
7760;BME280;3924;48.830;9.262;2023-02-15T01:30:36;99942.13;;;0.76;83.65
7760;BME280;3924;48.830;9.262;2023-02-15T01:33:03;99942.69;;;0.72;83.45
7760;BME280;3924;48.830;9.262;2023-02-15T01:35:29;99944.09;;;0.68;83.71
7760;BME280;3924;48.830;9.262;2023-02-15T01:37:56;99939.53;;;0.62;83.57
7760;BME280;3924;48.830;9.262;2023-02-15T01:40:24;99940.81;;;0.66;83.83
7760;BME280;3924;48.830;9.262;2023-02-15T01:42:52;99937.09;;;0.67;83.92
7760;BME280;3924;48.830;9.262;2023-02-15T01:47:49;99934.66;;;0.65;83.82
7760;BME280;3924;48.830;9.262;2023-02-15T01:50:27;99931.72;;;0.60;83.92
7760;BME280;3924;48.830;9.262;2023-02-15T01:53:09;99932.53;;;0.61;83.98
7760;BME280;3924;48.830;9.262;2023-02-15T01:55:47;99930.09;;;0.59;83.96
7760;BME280;3924;48.830;9.262;2023-02-15T01:58:16;99931.72;;;0.60;83.89
7760;BME280;3924;48.830;9.262;2023-02-15T02:00:43;99929.88;;;0.61;84.06
7760;BME280;3924;48.830;9.262;2023-02-15T02:03:11;99927.22;;;0.61;83.87
7760;BME280;3924;48.830;9.262;2023-02-15T02:05:38;99924.13;;;0.57;83.61
7760;BME280;3924;48.830;9.262;2023-02-15T02:08:07;99916.88;;;0.51;83.91
7760;BME280;3924;48.830;9.262;2023-02-15T02:10:36;99920.56;;;0.50;84.16
7760;BME280;3924;48.830;9.262;2023-02-15T02:13:04;99911.56;;;0.51;84.10
7760;BME280;3924;48.830;9.262;2023-02-15T02:15:42;99915.88;;;0.52;84.13
7760;BME280;3924;48.830;9.262;2023-02-15T02:20:59;99909.03;;;0.43;84.13
7760;BME280;3924;48.830;9.262;2023-02-15T02:35:17;99921.63;;;0.28;83.96
7760;BME280;3924;48.830;9.262;2023-02-15T02:37:59;99918.31;;;0.25;84.47
7760;BME280;3924;48.830;9.262;2023-02-15T02:43:21;99924.66;;;0.24;84.19
7760;BME280;3924;48.830;9.262;2023-02-15T02:46:08;99916.03;;;0.22;84.11
7760;BME280;3924;48.830;9.262;2023-02-15T02:48:38;99918.31;;;0.25;84.35
7760;BME280;3924;48.830;9.262;2023-02-15T02:51:05;99910.13;;;0.27;84.18
7760;BME280;3924;48.830;9.262;2023-02-15T02:53:33;99907.66;;;0.25;84.25
7760;BME280;3924;48.830;9.262;2023-02-15T02:56:06;99913.63;;;0.28;84.24
7760;BME280;3924;48.830;9.262;2023-02-15T03:01:15;99913.63;;;0.28;84.32
7760;BME280;3924;48.830;9.262;2023-02-15T03:03:48;99913.25;;;0.31;84.57
7760;BME280;3924;48.830;9.262;2023-02-15T03:06:25;99908.91;;;0.30;84.29
7760;BME280;3924;48.830;9.262;2023-02-15T03:08:59;99900.31;;;0.28;84.24
7760;BME280;3924;48.830;9.262;2023-02-15T03:11:27;99904.78;;;0.27;84.32
7760;BME280;3924;48.830;9.262;2023-02-15T03:13:54;99907.03;;;0.23;84.50
7760;BME280;3924;48.830;9.262;2023-02-15T03:16:21;99899.03;;;0.23;84.41
7760;BME280;3924;48.830;9.262;2023-02-15T03:18:58;99901.06;;;0.21;84.44
7760;BME280;3924;48.830;9.262;2023-02-15T03:21:50;99892.81;;;0.16;84.51
7760;BME280;3924;48.830;9.262;2023-02-15T03:24:27;99893.63;;;0.17;84.46
7760;BME280;3924;48.830;9.262;2023-02-15T03:26:54;99897.75;;;0.19;84.38
7760;BME280;3924;48.830;9.262;2023-02-15T03:29:25;99899.38;;;0.20;84.56
7760;BME280;3924;48.830;9.262;2023-02-15T03:32:00;99897.13;;;0.17;84.52
7760;BME280;3924;48.830;9.262;2023-02-15T03:34:29;99906.34;;;0.15;84.47
7760;BME280;3924;48.830;9.262;2023-02-15T03:40:18;99898.91;;;0.10;84.41
7760;BME280;3924;48.830;9.262;2023-02-15T03:43:11;99892.94;;;0.08;84.34
7760;BME280;3924;48.830;9.262;2023-02-15T03:45:42;99891.94;;;0.09;84.23
7760;BME280;3924;48.830;9.262;2023-02-15T03:48:24;99898.84;;;0.04;84.39
7760;BME280;3924;48.830;9.262;2023-02-15T03:50:55;99906.63;;;0.05;84.64
7760;BME280;3924;48.830;9.262;2023-02-15T03:53:43;99908.69;;;0.03;84.50
7760;BME280;3924;48.830;9.262;2023-02-15T03:56:10;99905.19;;;0.03;84.47
7760;BME280;3924;48.830;9.262;2023-02-15T03:58:37;99899.88;;;0.03;84.50
7760;BME280;3924;48.830;9.262;2023-02-15T04:01:26;99902.53;;;0.03;84.66
7760;BME280;3924;48.830;9.262;2023-02-15T04:04:20;99902.06;;;-0.01;84.33
7760;BME280;3924;48.830;9.262;2023-02-15T04:06:50;99907.97;;;-0.27;83.95
7760;BME280;3924;48.830;9.262;2023-02-15T04:09:18;99909.25;;;-0.59;84.18
7760;BME280;3924;48.830;9.262;2023-02-15T04:12:03;99903.97;;;-0.89;84.28
7760;BME280;3924;48.830;9.262;2023-02-15T04:14:30;99910.09;;;-1.18;83.69
7760;BME280;3924;48.830;9.262;2023-02-15T04:17:15;99911.31;;;-1.35;84.51
7760;BME280;3924;48.830;9.262;2023-02-15T04:19:41;99913.47;;;-1.39;84.74
7760;BME280;3924;48.830;9.262;2023-02-15T04:22:26;99907.91;;;-1.44;84.77
7760;BME280;3924;48.830;9.262;2023-02-15T04:25:11;99905.97;;;-1.50;84.63
7760;BME280;3924;48.830;9.262;2023-02-15T04:27:43;99899.25;;;-1.60;85.01
7760;BME280;3924;48.830;9.262;2023-02-15T04:30:12;99900.25;;;-1.61;84.92
7760;BME280;3924;48.830;9.262;2023-02-15T04:32:39;99895.69;;;-1.53;84.88
7760;BME280;3924;48.830;9.262;2023-02-15T04:35:06;99899.63;;;-1.49;84.91
7760;BME280;3924;48.830;9.262;2023-02-15T04:37:33;99898.25;;;-1.45;84.76
7760;BME280;3924;48.830;9.262;2023-02-15T04:39:59;99898.81;;;-1.34;84.85
7760;BME280;3924;48.830;9.262;2023-02-15T04:42:26;99891.38;;;-1.39;84.47
7760;BME280;3924;48.830;9.262;2023-02-15T04:44:53;99894.72;;;-1.37;84.92
7760;BME280;3924;48.830;9.262;2023-02-15T04:47:20;99887.56;;;-1.36;85.13
7760;BME280;3924;48.830;9.262;2023-02-15T04:49:47;99881.56;;;-1.39;84.93
7760;BME280;3924;48.830;9.262;2023-02-15T04:52:13;99884.06;;;-1.37;85.36
7760;BME280;3924;48.830;9.262;2023-02-15T04:54:40;99878.84;;;-1.30;85.30
7760;BME280;3924;48.830;9.262;2023-02-15T04:57:06;99889.66;;;-1.17;85.26
7760;BME280;3924;48.830;9.262;2023-02-15T04:59:33;99880.38;;;-1.06;85.07
7760;BME280;3924;48.830;9.262;2023-02-15T05:01:59;99877.19;;;-1.02;85.11
7760;BME280;3924;48.830;9.262;2023-02-15T05:04:26;99878.19;;;-1.03;84.79
7760;BME280;3924;48.830;9.262;2023-02-15T05:06:52;99871.41;;;-1.05;84.90
7760;BME280;3924;48.830;9.262;2023-02-15T05:09:19;99869.56;;;-1.05;84.81
7760;BME280;3924;48.830;9.262;2023-02-15T05:11:45;99869.38;;;-1.03;85.13
7760;BME280;3924;48.830;9.262;2023-02-15T05:14:12;99871.19;;;-1.04;85.07
7760;BME280;3924;48.830;9.262;2023-02-15T05:16:39;99880.88;;;-1.03;85.08
7760;BME280;3924;48.830;9.262;2023-02-15T05:19:06;99881.94;;;-1.12;84.79
7760;BME280;3924;48.830;9.262;2023-02-15T05:21:33;99887.75;;;-1.23;85.06
7760;BME280;3924;48.830;9.262;2023-02-15T05:24:00;99885.53;;;-1.20;85.60
7760;BME280;3924;48.830;9.262;2023-02-15T05:26:26;99891.03;;;-1.21;85.18
7760;BME280;3924;48.830;9.262;2023-02-15T05:29:11;99889.19;;;-1.21;85.21
7760;BME280;3924;48.830;9.262;2023-02-15T05:31:38;99883.69;;;-1.19;85.08
7760;BME280;3924;48.830;9.262;2023-02-15T05:34:04;99881.94;;;-1.27;84.86
7760;BME280;3924;48.830;9.262;2023-02-15T05:36:31;99887.19;;;-1.19;85.31
7760;BME280;3924;48.830;9.262;2023-02-15T05:38:57;99888.47;;;-1.15;84.94
7760;BME280;3924;48.830;9.262;2023-02-15T05:41:24;99888.00;;;-1.18;85.22
7760;BME280;3924;48.830;9.262;2023-02-15T05:43:51;99890.41;;;-1.23;84.81
7760;BME280;3924;48.830;9.262;2023-02-15T05:46:18;99891.97;;;-1.29;84.96
7760;BME280;3924;48.830;9.262;2023-02-15T05:48:44;99893.84;;;-1.38;84.88
7760;BME280;3924;48.830;9.262;2023-02-15T05:51:12;99892.94;;;-1.45;85.08
7760;BME280;3924;48.830;9.262;2023-02-15T05:53:40;99892.38;;;-1.55;85.51
7760;BME280;3924;48.830;9.262;2023-02-15T05:56:09;99889.09;;;-1.57;84.99
7760;BME280;3924;48.830;9.262;2023-02-15T05:58:38;99880.75;;;-1.54;85.27
7760;BME280;3924;48.830;9.262;2023-02-15T06:01:16;99879.38;;;-1.50;85.06
7760;BME280;3924;48.830;9.262;2023-02-15T06:03:44;99880.31;;;-1.43;85.22
7760;BME280;3924;48.830;9.262;2023-02-15T06:06:11;99886.88;;;-1.39;85.03
7760;BME280;3924;48.830;9.262;2023-02-15T06:08:37;99888.19;;;-1.34;85.24
7760;BME280;3924;48.830;9.262;2023-02-15T06:11:05;99880.84;;;-1.32;85.28
7760;BME280;3924;48.830;9.262;2023-02-15T06:13:32;99890.38;;;-1.38;84.77
7760;BME280;3924;48.830;9.262;2023-02-15T06:16:00;99889.28;;;-1.44;84.71
7760;BME280;3924;48.830;9.262;2023-02-15T06:18:28;99887.81;;;-1.46;85.43
7760;BME280;3924;48.830;9.262;2023-02-15T06:20:55;99887.34;;;-1.50;85.39
7760;BME280;3924;48.830;9.262;2023-02-15T06:23:21;99892.84;;;-1.51;85.69
7760;BME280;3924;48.830;9.262;2023-02-15T06:25:48;99893.69;;;-1.51;85.39
7760;BME280;3924;48.830;9.262;2023-02-15T06:28:14;99898.72;;;-1.41;85.62
7760;BME280;3924;48.830;9.262;2023-02-15T06:30:41;99903.13;;;-1.33;85.27
7760;BME280;3924;48.830;9.262;2023-02-15T06:33:07;99911.22;;;-1.27;85.43
7760;BME280;3924;48.830;9.262;2023-02-15T06:35:34;99910.09;;;-1.32;85.17
7760;BME280;3924;48.830;9.262;2023-02-15T06:38:00;99917.34;;;-1.26;85.58
7760;BME280;3924;48.830;9.262;2023-02-15T06:40:27;99918.91;;;-1.17;85.52
7760;BME280;3924;48.830;9.262;2023-02-15T06:42:53;99914.88;;;-1.13;85.28
7760;BME280;3924;48.830;9.262;2023-02-15T06:45:20;99922.03;;;-1.14;85.45
7760;BME280;3924;48.830;9.262;2023-02-15T06:47:46;99922.78;;;-1.20;85.09
7760;BME280;3924;48.830;9.262;2023-02-15T06:50:13;99920.50;;;-1.23;85.08
7760;BME280;3924;48.830;9.262;2023-02-15T06:52:40;99922.78;;;-1.20;85.29
7760;BME280;3924;48.830;9.262;2023-02-15T06:55:06;99926.88;;;-1.17;85.10
7760;BME280;3924;48.830;9.262;2023-02-15T06:57:33;99924.06;;;-1.16;85.34
7760;BME280;3924;48.830;9.262;2023-02-15T06:59:59;99921.22;;;-1.14;85.25
7760;BME280;3924;48.830;9.262;2023-02-15T07:02:26;99919.56;;;-1.15;85.24
7760;BME280;3924;48.830;9.262;2023-02-15T07:04:53;99923.88;;;-1.14;85.22
7760;BME280;3924;48.830;9.262;2023-02-15T07:07:19;99926.84;;;-1.09;85.61
7760;BME280;3924;48.830;9.262;2023-02-15T07:09:46;99929.94;;;-1.05;85.20
7760;BME280;3924;48.830;9.262;2023-02-15T07:12:12;99928.75;;;-1.03;85.39
7760;BME280;3924;48.830;9.262;2023-02-15T07:14:57;99921.03;;;-0.98;85.26
7760;BME280;3924;48.830;9.262;2023-02-15T07:17:24;99929.28;;;-0.93;85.06
7760;BME280;3924;48.830;9.262;2023-02-15T07:20:04;99932.25;;;-0.88;85.21
7760;BME280;3924;48.830;9.262;2023-02-15T07:22:31;99930.22;;;-0.86;85.31
7760;BME280;3924;48.830;9.262;2023-02-15T07:25:00;99938.47;;;-0.80;85.47
7760;BME280;3924;48.830;9.262;2023-02-15T07:27:27;99934.06;;;-0.73;85.31
7760;BME280;3924;48.830;9.262;2023-02-15T07:29:53;99941.94;;;-0.65;85.20
7760;BME280;3924;48.830;9.262;2023-02-15T07:32:21;99938.47;;;-0.66;84.82
7760;BME280;3924;48.830;9.262;2023-02-15T07:34:48;99933.88;;;-0.87;84.75
7760;BME280;3924;48.830;9.262;2023-02-15T07:37:14;99935.72;;;-1.02;84.86
7760;BME280;3924;48.830;9.262;2023-02-15T07:39:41;99937.47;;;-1.09;85.04
7760;BME280;3924;48.830;9.262;2023-02-15T07:42:08;99939.75;;;-1.06;85.13
7760;BME280;3924;48.830;9.262;2023-02-15T07:44:34;99929.59;;;-1.02;84.79
7760;BME280;3924;48.830;9.262;2023-02-15T07:47:00;99919.38;;;-0.99;85.31
7760;BME280;3924;48.830;9.262;2023-02-15T07:49:27;99927.66;;;-0.94;85.02
7760;BME280;3924;48.830;9.262;2023-02-15T07:51:54;99920.69;;;-0.95;85.24
7760;BME280;3924;48.830;9.262;2023-02-15T07:54:20;99917.72;;;-1.00;84.82
7760;BME280;3924;48.830;9.262;2023-02-15T07:56:47;99917.34;;;-0.97;85.32
7760;BME280;3924;48.830;9.262;2023-02-15T07:59:13;99908.63;;;-0.91;85.18
7760;BME280;3924;48.830;9.262;2023-02-15T08:01:40;99907.63;;;-0.90;85.08
7760;BME280;3924;48.830;9.262;2023-02-15T08:04:07;99908.44;;;-0.74;85.35
7760;BME280;3924;48.830;9.262;2023-02-15T08:06:36;99910.81;;;-0.65;84.71
7760;BME280;3924;48.830;9.262;2023-02-15T08:09:05;99912.03;;;-0.67;84.78
7760;BME280;3924;48.830;9.262;2023-02-15T08:11:35;99912.53;;;-0.57;85.13
7760;BME280;3924;48.830;9.262;2023-02-15T08:14:08;99921.06;;;-0.47;85.36
7760;BME280;3924;48.830;9.262;2023-02-15T08:19:18;99937.28;;;-0.42;84.81
7760;BME280;3924;48.830;9.262;2023-02-15T08:21:56;99931.97;;;-0.42;84.76
7760;BME280;3924;48.830;9.262;2023-02-15T08:24:29;99940.94;;;-0.64;84.47
7760;BME280;3924;48.830;9.262;2023-02-15T08:26:57;99935.34;;;-0.84;84.38
7760;BME280;3924;48.830;9.262;2023-02-15T08:29:26;99929.56;;;-0.88;84.90
7760;BME280;3924;48.830;9.262;2023-02-15T08:31:55;99928.56;;;-0.87;85.27
7760;BME280;3924;48.830;9.262;2023-02-15T08:34:25;99923.97;;;-0.93;85.00
7760;BME280;3924;48.830;9.262;2023-02-15T08:36:51;99930.03;;;-0.99;84.95
7760;BME280;3924;48.830;9.262;2023-02-15T08:39:18;99931.97;;;-1.07;84.95
7760;BME280;3924;48.830;9.262;2023-02-15T08:41:46;99924.16;;;-1.09;85.01
7760;BME280;3924;48.830;9.262;2023-02-15T08:44:18;99927.19;;;-0.97;85.24
7760;BME280;3924;48.830;9.262;2023-02-15T08:46:47;99935.00;;;-0.96;84.80
7760;BME280;3924;48.830;9.262;2023-02-15T08:49:19;99929.75;;;-1.04;84.51
7760;BME280;3924;48.830;9.262;2023-02-15T08:51:47;99937.72;;;-1.04;84.93
7760;BME280;3924;48.830;9.262;2023-02-15T08:54:18;99930.84;;;-0.98;84.95
7760;BME280;3924;48.830;9.262;2023-02-15T08:56:45;99932.25;;;-0.88;85.15
7760;BME280;3924;48.830;9.262;2023-02-15T08:59:15;99925.97;;;-0.65;85.04
7760;BME280;3924;48.830;9.262;2023-02-15T09:01:43;99925.38;;;-0.46;84.80
7760;BME280;3924;48.830;9.262;2023-02-15T09:04:09;99922.28;;;-0.28;84.74
7760;BME280;3924;48.830;9.262;2023-02-15T09:06:37;99912.59;;;-0.14;84.77
7760;BME280;3924;48.830;9.262;2023-02-15T09:09:04;99915.03;;;0.02;84.52
7760;BME280;3924;48.830;9.262;2023-02-15T09:11:38;99919.00;;;0.13;84.55
7760;BME280;3924;48.830;9.262;2023-02-15T09:14:07;99907.50;;;0.34;84.66
7760;BME280;3924;48.830;9.262;2023-02-15T09:16:37;99901.91;;;0.50;84.13
7760;BME280;3924;48.830;9.262;2023-02-15T09:19:05;99897.59;;;0.49;83.71
7760;BME280;3924;48.830;9.262;2023-02-15T09:21:33;99892.16;;;0.36;83.79
7760;BME280;3924;48.830;9.262;2023-02-15T09:24:03;99900.31;;;0.28;84.20
7760;BME280;3924;48.830;9.262;2023-02-15T09:26:31;99903.97;;;0.26;84.80
7760;BME280;3924;48.830;9.262;2023-02-15T09:28:59;99897.50;;;0.36;84.05
7760;BME280;3924;48.830;9.262;2023-02-15T09:31:29;99900.22;;;0.42;84.24
7760;BME280;3924;48.830;9.262;2023-02-15T09:33:56;99896.06;;;0.40;84.32
7760;BME280;3924;48.830;9.262;2023-02-15T09:36:32;99891.56;;;0.40;84.25
7760;BME280;3924;48.830;9.262;2023-02-15T09:42:12;99884.38;;;0.41;84.63
7760;BME280;3924;48.830;9.262;2023-02-15T09:59:06;99875.81;;;1.21;84.03
7760;BME280;3924;48.830;9.262;2023-02-15T10:04:33;99871.03;;;1.64;83.21
7760;BME280;3924;48.830;9.262;2023-02-15T10:12:36;99859.53;;;1.71;83.08
7760;BME280;3924;48.830;9.262;2023-02-15T10:15:23;99868.81;;;1.81;83.15
7760;BME280;3924;48.830;9.262;2023-02-15T10:20:55;99847.25;;;2.29;83.14
7760;BME280;3924;48.830;9.262;2023-02-15T10:23:42;99849.50;;;2.45;82.71
7760;BME280;3924;48.830;9.262;2023-02-15T10:26:20;99845.97;;;2.65;82.58
7760;BME280;3924;48.830;9.262;2023-02-15T10:28:51;99845.94;;;2.78;82.19
7760;BME280;3924;48.830;9.262;2023-02-15T10:34:18;99844.22;;;3.04;82.07
7760;BME280;3924;48.830;9.262;2023-02-15T10:45:20;99828.41;;;3.34;81.55
7760;BME280;3924;48.830;9.262;2023-02-15T10:48:00;99829.72;;;3.56;81.09
7760;BME280;3924;48.830;9.262;2023-02-15T10:50:49;99828.63;;;3.70;80.93
7760;BME280;3924;48.830;9.262;2023-02-15T10:56:14;99810.75;;;4.14;80.55
7760;BME280;3924;48.830;9.262;2023-02-15T11:01:52;99803.97;;;4.11;80.23
7760;BME280;3924;48.830;9.262;2023-02-15T11:07:17;99800.50;;;4.04;80.24
7760;BME280;3924;48.830;9.262;2023-02-15T11:09:52;99803.66;;;4.01;80.33
7760;BME280;3924;48.830;9.262;2023-02-15T11:12:24;99791.88;;;4.02;80.28
7760;BME280;3924;48.830;9.262;2023-02-15T11:15:02;99791.97;;;4.14;80.33
7760;BME280;3924;48.830;9.262;2023-02-15T11:17:39;99791.00;;;4.33;80.21
7760;BME280;3924;48.830;9.262;2023-02-15T11:20:18;99793.59;;;4.58;79.75
7760;BME280;3924;48.830;9.262;2023-02-15T11:22:50;99789.81;;;4.66;79.87
7760;BME280;3924;48.830;9.262;2023-02-15T11:25:26;99786.47;;;4.71;79.68
7760;BME280;3924;48.830;9.262;2023-02-15T11:27:55;99793.41;;;4.78;79.49
7760;BME280;3924;48.830;9.262;2023-02-15T11:30:25;99790.94;;;4.95;79.59
7760;BME280;3924;48.830;9.262;2023-02-15T11:32:54;99785.25;;;5.03;79.30
7760;BME280;3924;48.830;9.262;2023-02-15T11:35:24;99781.06;;;5.07;79.19
7760;BME280;3924;48.830;9.262;2023-02-15T11:38:06;99781.34;;;5.17;78.94
7760;BME280;3924;48.830;9.262;2023-02-15T11:41:05;99795.66;;;5.30;78.67
7760;BME280;3924;48.830;9.262;2023-02-15T11:43:40;99779.75;;;5.28;78.90
7760;BME280;3924;48.830;9.262;2023-02-15T11:46:11;99774.09;;;5.48;78.59
7760;BME280;3924;48.830;9.262;2023-02-15T11:48:39;99778.22;;;5.62;78.33
7760;BME280;3924;48.830;9.262;2023-02-15T11:51:05;99778.50;;;5.72;78.33
7760;BME280;3924;48.830;9.262;2023-02-15T11:53:37;99780.75;;;5.87;77.84
7760;BME280;3924;48.830;9.262;2023-02-15T11:56:04;99767.69;;;5.91;77.96
7760;BME280;3924;48.830;9.262;2023-02-15T11:58:45;99768.63;;;6.08;77.71
7760;BME280;3924;48.830;9.262;2023-02-15T12:01:21;99777.66;;;6.25;77.44
7760;BME280;3924;48.830;9.262;2023-02-15T12:03:52;99773.44;;;6.29;77.24
7760;BME280;3924;48.830;9.262;2023-02-15T12:06:28;99766.66;;;6.39;77.25
7760;BME280;3924;48.830;9.262;2023-02-15T12:11:49;99764.75;;;6.74;76.43
7760;BME280;3924;48.830;9.262;2023-02-15T12:14:15;99766.25;;;6.82;76.24
7760;BME280;3924;48.830;9.262;2023-02-15T12:16:47;99762.72;;;6.81;76.39
7760;BME280;3924;48.830;9.262;2023-02-15T12:19:33;99757.44;;;6.87;76.30
7760;BME280;3924;48.830;9.262;2023-02-15T12:22:04;99755.09;;;6.90;76.20
7760;BME280;3924;48.830;9.262;2023-02-15T12:24:37;99748.44;;;7.21;75.83
7760;BME280;3924;48.830;9.262;2023-02-15T12:27:23;99747.63;;;7.37;75.48
7760;BME280;3924;48.830;9.262;2023-02-15T12:33:26;99738.06;;;7.30;75.47
7760;BME280;3924;48.830;9.262;2023-02-15T12:36:01;99742.03;;;7.27;75.33
7760;BME280;3924;48.830;9.262;2023-02-15T12:38:30;99737.72;;;7.26;75.33
7760;BME280;3924;48.830;9.262;2023-02-15T12:41:00;99739.53;;;7.37;75.42
7760;BME280;3924;48.830;9.262;2023-02-15T12:43:38;99734.59;;;7.63;74.83
7760;BME280;3924;48.830;9.262;2023-02-15T12:46:23;99728.63;;;7.94;74.95
7760;BME280;3924;48.830;9.262;2023-02-15T12:49:05;99724.28;;;7.93;74.70
7760;BME280;3924;48.830;9.262;2023-02-15T12:51:59;99721.19;;;7.85;74.48
7760;BME280;3924;48.830;9.262;2023-02-15T12:54:41;99718.88;;;7.93;74.67
7760;BME280;3924;48.830;9.262;2023-02-15T12:57:18;99721.16;;;8.18;74.02
7760;BME280;3924;48.830;9.262;2023-02-15T12:59:51;99713.88;;;8.36;73.23
7760;BME280;3924;48.830;9.262;2023-02-15T13:02:35;99712.31;;;8.23;73.29
7760;BME280;3924;48.830;9.262;2023-02-15T13:05:36;99705.44;;;8.15;73.55
7760;BME280;3924;48.830;9.262;2023-02-15T13:08:21;99703.63;;;8.21;73.52
7760;BME280;3924;48.830;9.262;2023-02-15T13:10:54;99700.03;;;8.32;72.75
7760;BME280;3924;48.830;9.262;2023-02-15T13:13:25;99698.19;;;8.55;72.99
7760;BME280;3924;48.830;9.262;2023-02-15T13:15:54;99689.75;;;8.73;72.30
7760;BME280;3924;48.830;9.262;2023-02-15T13:18:36;99693.47;;;8.89;72.44
7760;BME280;3924;48.830;9.262;2023-02-15T13:21:13;99674.41;;;9.00;72.06
7760;BME280;3924;48.830;9.262;2023-02-15T13:23:44;99674.59;;;8.94;72.07
7760;BME280;3924;48.830;9.262;2023-02-15T13:26:16;99667.75;;;8.86;72.28
7760;BME280;3924;48.830;9.262;2023-02-15T13:28:47;99665.66;;;8.93;71.58
7760;BME280;3924;48.830;9.262;2023-02-15T13:31:18;99666.78;;;8.97;71.45
7760;BME280;3924;48.830;9.262;2023-02-15T13:33:56;99659.38;;;9.15;71.47
7760;BME280;3924;48.830;9.262;2023-02-15T13:36:36;99665.97;;;9.24;71.27
7760;BME280;3924;48.830;9.262;2023-02-15T13:39:14;99657.56;;;9.20;71.18
7760;BME280;3924;48.830;9.262;2023-02-15T13:42:02;99658.31;;;9.16;71.61
7760;BME280;3924;48.830;9.262;2023-02-15T13:47:34;99655.00;;;9.09;71.54
7760;BME280;3924;48.830;9.262;2023-02-15T13:55:44;99640.19;;;9.16;70.74
7760;BME280;3924;48.830;9.262;2023-02-15T14:06:14;99623.81;;;9.33;70.03
7760;BME280;3924;48.830;9.262;2023-02-15T14:08:59;99628.94;;;9.29;70.22
7760;BME280;3924;48.830;9.262;2023-02-15T14:17:24;99629.38;;;9.16;69.52
7760;BME280;3924;48.830;9.262;2023-02-15T14:19:59;99621.19;;;9.11;70.08
7760;BME280;3924;48.830;9.262;2023-02-15T14:22:35;99626.00;;;9.04;70.39
7760;BME280;3924;48.830;9.262;2023-02-15T14:27:56;99634.97;;;8.83;70.24
7760;BME280;3924;48.830;9.262;2023-02-15T14:30:31;99621.09;;;8.74;71.05
7760;BME280;3924;48.830;9.262;2023-02-15T14:35:50;99626.91;;;8.61;70.44
7760;BME280;3924;48.830;9.262;2023-02-15T14:40:59;99628.44;;;8.52;70.27
7760;BME280;3924;48.830;9.262;2023-02-15T14:49:11;99634.84;;;8.45;70.32
7760;BME280;3924;48.830;9.262;2023-02-15T14:56:44;99630.50;;;8.44;70.13
7760;BME280;3924;48.830;9.262;2023-02-15T15:01:38;99625.03;;;8.39;69.83
7760;BME280;3924;48.830;9.262;2023-02-15T15:04:21;99631.81;;;8.42;70.60
7760;BME280;3924;48.830;9.262;2023-02-15T15:07:00;99628.84;;;8.43;70.61
7760;BME280;3924;48.830;9.262;2023-02-15T15:09:30;99626.72;;;8.45;69.92
7760;BME280;3924;48.830;9.262;2023-02-15T15:14:50;99634.31;;;8.48;70.10
7760;BME280;3924;48.830;9.262;2023-02-15T15:17:58;99628.09;;;8.48;69.75
7760;BME280;3924;48.830;9.262;2023-02-15T15:26:21;99628.56;;;8.40;69.66
7760;BME280;3924;48.830;9.262;2023-02-15T15:31:30;99622.22;;;8.34;70.00
7760;BME280;3924;48.830;9.262;2023-02-15T15:39:43;99622.13;;;8.24;69.69
7760;BME280;3924;48.830;9.262;2023-02-15T15:47:58;99625.75;;;8.13;69.94
7760;BME280;3924;48.830;9.262;2023-02-15T15:50:33;99624.03;;;8.07;69.41
7760;BME280;3924;48.830;9.262;2023-02-15T15:53:01;99626.44;;;8.03;69.64
7760;BME280;3924;48.830;9.262;2023-02-15T15:55:30;99629.06;;;7.98;70.15
7760;BME280;3924;48.830;9.262;2023-02-15T15:58:03;99621.44;;;7.95;70.07
7760;BME280;3924;48.830;9.262;2023-02-15T16:00:38;99625.13;;;7.89;69.98
7760;BME280;3924;48.830;9.262;2023-02-15T16:03:15;99626.38;;;7.81;70.16
7760;BME280;3924;48.830;9.262;2023-02-15T16:05:42;99623.53;;;7.71;70.48
7760;BME280;3924;48.830;9.262;2023-02-15T16:08:09;99622.56;;;7.60;70.60
7760;BME280;3924;48.830;9.262;2023-02-15T16:10:35;99619.97;;;7.49;70.53
7760;BME280;3924;48.830;9.262;2023-02-15T16:13:05;99626.25;;;7.37;70.70
7760;BME280;3924;48.830;9.262;2023-02-15T16:15:36;99624.22;;;7.28;70.49
7760;BME280;3924;48.830;9.262;2023-02-15T16:18:13;99619.19;;;7.20;71.06
7760;BME280;3924;48.830;9.262;2023-02-15T16:20:48;99613.75;;;7.15;71.04
7760;BME280;3924;48.830;9.262;2023-02-15T16:28:50;99621.63;;;6.88;71.56